createdAt,value
2022-08-04T00:04:47.156Z,2.07
2022-08-04T00:09:54.682Z,2.20
2022-08-04T00:15:03.876Z,2.20
2022-08-04T00:20:12.025Z,2.30
2022-08-04T00:25:16.873Z,2.60
2022-08-04T00:30:21.212Z,2.73
2022-08-04T00:35:26.704Z,2.20
2022-08-04T00:40:37.756Z,2.10
2022-08-04T00:46:17.781Z,2.43
2022-08-04T00:51:33.665Z,2.50
2022-08-04T00:57:30.060Z,2.30
2022-08-04T01:02:41.453Z,2.20
2022-08-04T01:08:08.429Z,2.27
2022-08-04T01:13:38.223Z,2.40
2022-08-04T01:18:56.161Z,2.17
2022-08-04T01:24:31.234Z,2.30
2022-08-04T01:29:48.805Z,2.43
2022-08-04T01:34:54.726Z,2.27
2022-08-04T01:40:04.436Z,2.63
2022-08-04T01:45:12.569Z,2.60
2022-08-04T01:50:16.567Z,2.50
2022-08-04T01:55:20.803Z,2.73
2022-08-04T02:00:28.335Z,3.00
2022-08-04T02:06:03.414Z,2.40
2022-08-04T02:11:05.329Z,3.07
2022-08-04T02:16:17.922Z,2.80
2022-08-04T02:21:25.217Z,2.60
2022-08-04T02:26:31.212Z,2.50
2022-08-04T02:31:44.806Z,2.67
2022-08-04T02:36:51.637Z,2.73
2022-08-04T02:41:57.262Z,2.63
2022-08-04T02:47:03.101Z,2.67
2022-08-04T02:52:12.989Z,2.70
2022-08-04T02:57:19.199Z,2.80
2022-08-04T03:02:34.296Z,2.97
2022-08-04T03:08:09.768Z,2.67
2022-08-04T03:13:55.844Z,3.00
2022-08-04T03:19:38.874Z,2.57
2022-08-04T03:25:57.077Z,3.10
2022-08-04T03:31:24.069Z,2.90
2022-08-04T03:36:57.371Z,2.70
2022-08-04T03:42:22.231Z,2.80
2022-08-04T03:47:47.184Z,3.03
2022-08-04T03:53:23.479Z,2.73
2022-08-04T03:58:49.953Z,2.77
2022-08-04T04:04:12.311Z,2.87
2022-08-04T04:09:57.566Z,3.20
2022-08-04T04:15:23.650Z,3.40
2022-08-04T04:20:57.444Z,3.37
2022-08-04T04:26:21.763Z,2.90
2022-08-04T04:31:45.341Z,2.73
2022-08-04T04:37:07.004Z,3.30
2022-08-04T04:42:40.387Z,3.17
2022-08-04T04:48:08.408Z,2.83
2022-08-04T04:53:29.047Z,3.20
2022-08-04T04:58:35.601Z,3.27
2022-08-04T05:03:58.567Z,3.27
2022-08-04T05:09:17.531Z,3.50
2022-08-04T05:14:37.279Z,3.07
2022-08-04T05:19:57.484Z,3.10
2022-08-04T05:25:18.429Z,3.50
2022-08-04T05:30:22.984Z,3.77
2022-08-04T05:35:47.815Z,3.80
2022-08-04T05:40:58.376Z,4.70
2022-08-04T05:46:03.323Z,3.70
2022-08-04T05:51:11.098Z,3.70
2022-08-04T05:56:17.486Z,3.60
2022-08-04T06:01:21.857Z,3.37
2022-08-04T06:06:26.587Z,3.53
2022-08-04T06:12:02.131Z,3.33
2022-08-04T06:16:58.418Z,3.60
2022-08-04T06:22:05.897Z,3.87
2022-08-04T06:27:11.354Z,3.40
2022-08-04T06:32:33.741Z,3.63
2022-08-04T06:37:42.544Z,3.70
2022-08-04T06:42:50.738Z,3.17
2022-08-04T06:47:56.115Z,2.83
2022-08-04T06:52:59.713Z,3.23
2022-08-04T06:58:04.936Z,2.90
2022-08-04T07:03:08.808Z,2.93
2022-08-04T07:08:13.335Z,2.93
2022-08-04T07:13:19.593Z,3.30
2022-08-04T07:18:23.053Z,3.47
2022-08-04T07:23:27.787Z,3.07
2022-08-04T07:28:32.746Z,2.93
2022-08-04T07:33:36.557Z,2.90
2022-08-04T07:38:48.804Z,3.43
2022-08-04T07:43:56.718Z,2.90
2022-08-04T07:49:01.979Z,2.93
2022-08-04T07:54:06.136Z,3.20
2022-08-04T07:59:11.225Z,3.30
2022-08-04T08:04:16.093Z,3.00
2022-08-04T08:09:22.180Z,3.00
2022-08-04T08:14:28.352Z,2.72
2022-08-04T08:19:32.173Z,3.28
2022-08-04T08:24:37.973Z,3.03
2022-08-04T08:29:43.897Z,3.10
2022-08-04T08:34:48.130Z,3.10
2022-08-04T08:39:58.569Z,2.97
2022-08-04T08:45:41.765Z,2.65
2022-08-04T08:51:09.232Z,2.95
2022-08-04T08:56:31.290Z,2.75
2022-08-04T09:01:59.818Z,2.67
2022-08-04T09:07:29.419Z,2.90
2022-08-04T09:12:41.737Z,3.03
2022-08-04T09:17:51.538Z,2.63
2022-08-04T09:23:06.111Z,2.97
2022-08-04T09:28:37.201Z,2.97
2022-08-04T09:33:50.786Z,2.60
2022-08-04T09:39:11.256Z,2.60
2022-08-04T09:44:49.973Z,2.65
2022-08-04T09:49:59.535Z,2.78
2022-08-04T09:55:11.941Z,2.47
2022-08-04T10:00:18.048Z,2.40
2022-08-04T10:05:27.904Z,2.17
2022-08-04T10:10:38.670Z,2.70
2022-08-04T10:15:48.892Z,2.85
2022-08-04T10:21:10.317Z,2.80
2022-08-04T10:26:29.456Z,2.33
2022-08-04T10:31:37.438Z,2.58
2022-08-04T10:36:52.892Z,2.40
2022-08-04T10:42:04.895Z,2.35
2022-08-04T10:47:17.284Z,2.38
2022-08-04T10:52:33.015Z,2.60
2022-08-04T10:57:40.901Z,2.42
2022-08-04T11:02:51.696Z,2.28
2022-08-04T11:08:01.836Z,2.30
2022-08-04T11:13:29.447Z,2.20
2022-08-04T11:18:41.891Z,2.40
2022-08-04T11:23:54.813Z,2.30
2022-08-04T11:29:07.173Z,1.90
2022-08-04T11:34:20.998Z,2.35
2022-08-04T11:39:31.094Z,2.40
2022-08-04T11:44:45.181Z,2.20
2022-08-04T11:49:57.591Z,2.42
2022-08-04T11:55:07.091Z,3.05
2022-08-04T12:00:14.341Z,2.53
2022-08-04T12:05:33.581Z,2.40
2022-08-04T12:11:00.116Z,2.40
2022-08-04T12:16:14.814Z,2.42
2022-08-04T12:21:27.276Z,2.10
2022-08-04T12:26:38.598Z,2.78
2022-08-04T12:31:47.540Z,2.00
2022-08-04T12:36:58.051Z,2.13
2022-08-04T12:42:19.490Z,2.40
2022-08-04T12:47:30.580Z,1.95
2022-08-04T12:53:00.921Z,2.53
2022-08-04T12:58:43.401Z,2.30
2022-08-04T13:03:45.610Z,2.42
2022-08-04T13:08:49.928Z,2.65
2022-08-04T13:14:17.544Z,2.53
2022-08-04T13:19:21.161Z,2.70
2022-08-04T13:24:33.578Z,2.63
2022-08-04T13:29:59.807Z,2.58
2022-08-04T13:35:06.095Z,2.72
2022-08-04T13:40:18.301Z,2.55
2022-08-04T13:45:34.816Z,2.25
2022-08-04T13:50:39.551Z,2.55
2022-08-04T13:55:49.864Z,2.50
2022-08-04T14:01:11.550Z,2.08
2022-08-04T14:06:21.476Z,2.10
2022-08-04T14:12:09.176Z,2.03
2022-08-04T14:17:05.641Z,2.10
2022-08-04T14:22:09.235Z,2.20
2022-08-04T14:27:18.828Z,1.92
2022-08-04T14:32:26.405Z,2.47
2022-08-04T14:37:32.734Z,2.35
2022-08-04T14:42:55.556Z,2.20
2022-08-04T14:48:02.957Z,2.20
2022-08-04T14:53:08.342Z,2.50
2022-08-04T14:58:36.109Z,2.13
2022-08-04T15:03:52.472Z,2.30
2022-08-04T15:08:58.882Z,2.53
2022-08-04T15:14:03.252Z,2.22
2022-08-04T15:19:09.210Z,2.20
2022-08-04T15:24:13.569Z,2.13
2022-08-04T15:29:20.872Z,2.17
2022-08-04T15:34:26.885Z,2.28
2022-08-04T15:39:37.247Z,2.10
2022-08-04T15:45:06.253Z,2.03
2022-08-04T15:50:13.639Z,2.20
2022-08-04T15:55:36.726Z,2.40
2022-08-04T16:01:32.187Z,2.17
2022-08-04T16:06:46.549Z,2.35
2022-08-04T16:11:50.464Z,2.33
2022-08-04T16:16:54.175Z,2.55
2022-08-04T16:22:03.955Z,2.00
2022-08-04T16:27:09.192Z,1.88
2022-08-04T16:32:15.906Z,2.05
2022-08-04T16:37:22.493Z,2.50
2022-08-04T16:42:36.666Z,2.30
2022-08-04T16:48:02.550Z,2.13
2022-08-04T16:53:14.585Z,1.92
2022-08-04T16:58:53.651Z,2.10
2022-08-04T17:03:58.962Z,2.55
2022-08-04T17:21:20.905Z,2.50
2022-08-04T17:26:40.454Z,2.15
2022-08-04T17:31:45.431Z,2.17
2022-08-04T17:36:50.482Z,2.33
2022-08-04T17:41:57.654Z,2.53
2022-08-04T17:47:22.768Z,2.22
2022-08-04T17:52:44.569Z,2.35
2022-08-04T17:57:52.700Z,2.50
2022-08-04T18:02:56.522Z,2.38
2022-08-04T18:08:35.531Z,2.50
2022-08-04T18:13:42.750Z,2.60
2022-08-04T18:19:07.494Z,2.30
2022-08-04T18:24:18.083Z,2.65
2022-08-04T18:29:31.442Z,2.10
2022-08-04T18:34:40.722Z,2.42
2022-08-04T18:40:17.328Z,2.60
2022-08-04T18:45:11.838Z,2.85
2022-08-04T18:55:57.357Z,2.60
2022-08-04T19:01:01.302Z,2.25
2022-08-04T19:06:08.640Z,2.67
2022-08-04T19:11:38.229Z,2.15
2022-08-04T19:16:40.960Z,2.45
2022-08-04T19:22:01.625Z,2.47
2022-08-04T19:27:08.670Z,2.47
2022-08-04T19:32:19.917Z,2.70
2022-08-04T19:38:01.716Z,2.53
2022-08-04T19:43:07.471Z,2.70
2022-08-04T19:48:20.113Z,2.28
2022-08-04T19:53:37.537Z,2.80
2022-08-04T19:58:47.501Z,2.65
2022-08-04T20:04:10.185Z,2.83
2022-08-04T20:09:25.923Z,2.55
2022-08-04T20:14:33.523Z,2.70
2022-08-04T20:19:38.072Z,2.80
2022-08-04T20:24:48.008Z,2.92
2022-08-04T20:30:16.320Z,2.95
2022-08-04T20:35:29.272Z,2.97
2022-08-04T20:40:41.959Z,2.70
2022-08-04T20:45:56.964Z,2.78
2022-08-04T20:51:03.277Z,2.85
2022-08-04T20:56:07.377Z,2.80
2022-08-04T21:01:12.937Z,3.03
2022-08-04T21:06:18.474Z,2.60
2022-08-04T21:11:22.204Z,2.90
2022-08-04T21:16:55.833Z,2.60
2022-08-04T21:21:53.609Z,2.67
2022-08-04T21:26:58.670Z,2.50
2022-08-04T21:32:05.684Z,2.80
2022-08-04T21:37:11.491Z,2.80
2022-08-04T21:42:27.727Z,2.80
2022-08-04T21:47:45.954Z,2.70
2022-08-04T21:52:50.248Z,2.70
2022-08-04T21:57:55.452Z,3.23
2022-08-04T22:03:04.145Z,3.03
2022-08-04T22:08:07.865Z,2.90
2022-08-04T22:13:23.760Z,3.33
2022-08-04T22:18:48.882Z,3.20
2022-08-04T22:23:59.955Z,2.77
2022-08-04T22:29:06.383Z,2.90
2022-08-04T22:34:11.524Z,3.27
2022-08-04T22:39:16.550Z,3.27
2022-08-04T22:44:20.833Z,3.20
2022-08-04T22:49:31.396Z,2.80
2022-08-04T22:54:39.462Z,3.07
2022-08-04T22:59:44.497Z,3.00
2022-08-04T23:04:55.349Z,3.30
2022-08-04T23:09:59.007Z,2.80
2022-08-04T23:15:04.011Z,2.83
2022-08-04T23:20:23.063Z,3.20
2022-08-04T23:25:33.218Z,3.07
2022-08-04T23:30:50.814Z,3.10
2022-08-04T23:35:59.183Z,3.00
2022-08-04T23:41:07.682Z,2.90
2022-08-04T23:46:17.280Z,3.20
2022-08-04T23:51:25.347Z,3.10
2022-08-04T23:56:32.900Z,3.13
